createdAt,value
2018-11-25T19:26:14.274Z,46.00
2018-11-25T19:28:41.452Z,45.90
2018-11-25T19:31:08.581Z,47.60
2018-11-25T19:33:35.684Z,45.80
2018-11-25T19:36:02.792Z,45.90
2018-11-25T19:38:29.892Z,45.30
2018-11-25T19:40:57.000Z,45.40
2018-11-25T19:43:24.171Z,47.00
2018-11-25T19:45:51.247Z,46.50
2018-11-25T19:48:18.327Z,45.70
2018-11-25T19:50:45.430Z,45.90
2018-11-25T19:53:12.523Z,46.20
2018-11-25T19:55:40.324Z,46.20
2018-11-25T19:58:07.517Z,46.40
2018-11-25T20:00:34.777Z,46.40
2018-11-25T20:03:01.914Z,46.40
2018-11-25T20:05:29.033Z,46.30
2018-11-25T20:07:56.106Z,46.20
2018-11-25T20:10:24.378Z,46.20
2018-11-25T20:12:54.694Z,46.10
2018-11-25T20:15:21.819Z,46.10
2018-11-25T20:17:54.542Z,46.10
2018-11-25T20:20:18.277Z,46.10
2018-11-25T20:22:45.544Z,46.20
2018-11-25T20:25:13.288Z,46.10
2018-11-25T20:27:42.589Z,46.10
2018-11-25T20:30:13.348Z,46.10
2018-11-25T20:32:46.252Z,46.00
2018-11-25T20:35:13.361Z,46.00
2018-11-25T20:37:46.263Z,45.90
2018-11-25T20:40:13.367Z,45.80
2018-11-25T20:42:40.459Z,45.80
2018-11-25T20:45:14.512Z,45.70
2018-11-25T20:47:41.742Z,45.70
2018-11-25T20:50:08.837Z,45.60
2018-11-25T20:52:41.582Z,45.60
2018-11-25T20:55:08.588Z,45.50
2018-11-25T20:57:35.675Z,45.50
2018-11-25T21:00:03.136Z,45.40
2018-11-25T21:02:30.224Z,45.30
2018-11-25T21:04:57.312Z,45.20
2018-11-25T21:07:24.452Z,45.20
2018-11-25T21:09:51.541Z,45.30
2018-11-25T21:12:18.595Z,45.30
2018-11-25T21:14:45.716Z,45.20
2018-11-25T21:17:13.331Z,45.10
2018-11-25T21:19:39.935Z,45.10
2018-11-25T21:22:07.052Z,45.20
2018-11-25T21:24:34.189Z,45.20
2018-11-25T21:27:01.286Z,45.10
2018-11-25T21:29:28.376Z,45.10
2018-11-25T21:31:55.475Z,45.20
2018-11-25T21:34:22.583Z,45.10
2018-11-25T21:36:49.667Z,45.10
2018-11-25T21:39:16.761Z,45.10
2018-11-25T21:41:43.862Z,45.20
2018-11-25T21:44:10.933Z,45.20
2018-11-25T21:46:38.021Z,45.20
2018-11-25T21:49:05.105Z,45.20
2018-11-25T21:51:32.174Z,45.10
2018-11-25T21:53:59.275Z,45.10
2018-11-25T21:56:26.364Z,45.10
2018-11-25T21:58:53.472Z,45.10
2018-11-25T22:01:20.568Z,45.10
2018-11-25T22:03:47.647Z,45.10
2018-11-25T22:06:14.756Z,45.10
2018-11-25T22:08:41.862Z,45.10
2018-11-25T22:11:08.958Z,45.10
2018-11-25T22:13:36.057Z,45.00
2018-11-25T22:16:03.199Z,45.00
2018-11-25T22:18:30.279Z,45.00
2018-11-25T22:20:57.374Z,44.90
2018-11-25T22:23:24.479Z,44.90
2018-11-25T22:25:51.600Z,44.90
2018-11-25T22:28:18.678Z,44.80
2018-11-25T22:30:45.795Z,44.70
2018-11-25T22:33:12.876Z,44.70
2018-11-25T22:35:39.965Z,44.70
2018-11-25T22:38:07.087Z,44.70
2018-11-25T22:40:34.169Z,44.70
2018-11-25T22:43:01.320Z,44.60
2018-11-25T22:45:28.375Z,44.60
2018-11-25T22:47:55.468Z,44.60
2018-11-25T22:50:25.519Z,44.60
2018-11-25T22:52:49.683Z,44.70
2018-11-25T22:55:20.670Z,44.70
2018-11-25T22:57:47.807Z,44.70
2018-11-25T23:00:19.558Z,44.70
2018-11-25T23:02:46.661Z,44.70
2018-11-25T23:07:26.376Z,44.70
2018-11-25T23:09:53.448Z,44.70
2018-11-25T23:12:20.552Z,44.70
2018-11-25T23:14:47.651Z,44.60
2018-11-25T23:17:14.731Z,44.70
2018-11-25T23:19:41.837Z,44.60
2018-11-25T23:22:08.908Z,44.70
2018-11-25T23:24:36.024Z,44.70
2018-11-25T23:27:03.199Z,45.30
2018-11-25T23:29:30.272Z,44.70
2018-11-25T23:31:57.371Z,44.70
2018-11-25T23:34:24.458Z,44.70
2018-11-25T23:36:51.551Z,44.60
2018-11-25T23:39:18.657Z,44.60
2018-11-25T23:41:45.759Z,44.70
2018-11-25T23:44:12.848Z,44.60
2018-11-25T23:46:39.944Z,44.60
2018-11-25T23:49:07.029Z,44.50
2018-11-25T23:51:34.139Z,44.40
2018-11-25T23:54:01.233Z,44.30
2018-11-25T23:56:28.321Z,44.30
2018-11-25T23:58:55.400Z,44.20
